sensor_id;sensor_type;location;lat;lon;timestamp;P1;durP1;ratioP1;P2;durP2;ratioP2
20073;SDS011;10197;54.282;10.078;2023-11-21T00:00:02;7.13;;;5.00;;
20073;SDS011;10197;54.282;10.078;2023-11-21T00:02:38;6.45;;;5.32;;
20073;SDS011;10197;54.282;10.078;2023-11-21T00:05:06;6.50;;;5.53;;
20073;SDS011;10197;54.282;10.078;2023-11-21T00:07:34;6.03;;;5.40;;
20073;SDS011;10197;54.282;10.078;2023-11-21T00:10:01;6.70;;;5.43;;
20073;SDS011;10197;54.282;10.078;2023-11-21T00:12:30;7.18;;;5.28;;
20073;SDS011;10197;54.282;10.078;2023-11-21T00:14:57;6.75;;;5.22;;
20073;SDS011;10197;54.282;10.078;2023-11-21T00:17:25;6.28;;;4.88;;
20073;SDS011;10197;54.282;10.078;2023-11-21T00:19:52;7.25;;;5.35;;
20073;SDS011;10197;54.282;10.078;2023-11-21T00:22:19;5.68;;;4.78;;
20073;SDS011;10197;54.282;10.078;2023-11-21T00:24:46;7.60;;;6.00;;
20073;SDS011;10197;54.282;10.078;2023-11-21T00:27:13;6.88;;;5.38;;
20073;SDS011;10197;54.282;10.078;2023-11-21T00:29:39;8.00;;;5.38;;
20073;SDS011;10197;54.282;10.078;2023-11-21T00:32:06;7.75;;;5.90;;
20073;SDS011;10197;54.282;10.078;2023-11-21T00:34:35;7.00;;;5.80;;
20073;SDS011;10197;54.282;10.078;2023-11-21T00:37:02;8.18;;;5.55;;
20073;SDS011;10197;54.282;10.078;2023-11-21T00:39:29;8.23;;;5.85;;
20073;SDS011;10197;54.282;10.078;2023-11-21T00:41:58;9.98;;;6.63;;
20073;SDS011;10197;54.282;10.078;2023-11-21T00:44:25;7.22;;;5.80;;
20073;SDS011;10197;54.282;10.078;2023-11-21T00:46:52;7.40;;;5.53;;
20073;SDS011;10197;54.282;10.078;2023-11-21T00:49:19;5.85;;;4.97;;
20073;SDS011;10197;54.282;10.078;2023-11-21T00:51:49;7.57;;;5.97;;
20073;SDS011;10197;54.282;10.078;2023-11-21T00:54:16;6.25;;;5.38;;
20073;SDS011;10197;54.282;10.078;2023-11-21T00:56:43;6.88;;;5.80;;
20073;SDS011;10197;54.282;10.078;2023-11-21T00:59:12;9.80;;;6.38;;
20073;SDS011;10197;54.282;10.078;2023-11-21T01:01:40;5.88;;;5.18;;
20073;SDS011;10197;54.282;10.078;2023-11-21T01:04:07;6.93;;;5.38;;
20073;SDS011;10197;54.282;10.078;2023-11-21T01:06:34;8.63;;;6.35;;
20073;SDS011;10197;54.282;10.078;2023-11-21T01:09:02;8.73;;;5.95;;
20073;SDS011;10197;54.282;10.078;2023-11-21T01:11:33;7.10;;;5.63;;
20073;SDS011;10197;54.282;10.078;2023-11-21T01:14:02;6.13;;;5.40;;
20073;SDS011;10197;54.282;10.078;2023-11-21T01:16:30;11.15;;;6.60;;
20073;SDS011;10197;54.282;10.078;2023-11-21T01:18:57;9.77;;;6.13;;
20073;SDS011;10197;54.282;10.078;2023-11-21T01:21:24;11.13;;;6.55;;
20073;SDS011;10197;54.282;10.078;2023-11-21T01:23:51;8.23;;;6.10;;
20073;SDS011;10197;54.282;10.078;2023-11-21T01:26:19;9.68;;;6.18;;
20073;SDS011;10197;54.282;10.078;2023-11-21T01:28:45;8.48;;;5.72;;
20073;SDS011;10197;54.282;10.078;2023-11-21T01:31:14;7.80;;;6.13;;
20073;SDS011;10197;54.282;10.078;2023-11-21T01:33:41;10.00;;;6.30;;
20073;SDS011;10197;54.282;10.078;2023-11-21T01:36:08;7.10;;;6.22;;
20073;SDS011;10197;54.282;10.078;2023-11-21T01:38:35;9.35;;;6.32;;
20073;SDS011;10197;54.282;10.078;2023-11-21T01:41:02;8.30;;;6.80;;
20073;SDS011;10197;54.282;10.078;2023-11-21T01:43:31;7.63;;;5.80;;
20073;SDS011;10197;54.282;10.078;2023-11-21T01:45:59;8.98;;;6.45;;
20073;SDS011;10197;54.282;10.078;2023-11-21T01:48:25;10.82;;;6.35;;
20073;SDS011;10197;54.282;10.078;2023-11-21T01:50:53;8.25;;;6.35;;
20073;SDS011;10197;54.282;10.078;2023-11-21T01:57:06;9.82;;;7.93;;
20073;SDS011;10197;54.282;10.078;2023-11-21T01:59:36;10.48;;;8.63;;
20073;SDS011;10197;54.282;10.078;2023-11-21T02:02:04;10.02;;;8.43;;
20073;SDS011;10197;54.282;10.078;2023-11-21T02:04:31;12.35;;;8.70;;
20073;SDS011;10197;54.282;10.078;2023-11-21T02:06:58;12.07;;;8.88;;
20073;SDS011;10197;54.282;10.078;2023-11-21T02:09:25;10.27;;;8.32;;
20073;SDS011;10197;54.282;10.078;2023-11-21T02:11:52;10.95;;;8.77;;
20073;SDS011;10197;54.282;10.078;2023-11-21T02:14:20;10.25;;;8.10;;
20073;SDS011;10197;54.282;10.078;2023-11-21T02:16:50;10.55;;;8.38;;
20073;SDS011;10197;54.282;10.078;2023-11-21T02:19:17;10.57;;;7.70;;
20073;SDS011;10197;54.282;10.078;2023-11-21T02:21:48;9.40;;;7.95;;
20073;SDS011;10197;54.282;10.078;2023-11-21T02:24:19;10.68;;;7.72;;
20073;SDS011;10197;54.282;10.078;2023-11-21T02:26:46;9.23;;;7.53;;
20073;SDS011;10197;54.282;10.078;2023-11-21T02:29:13;6.97;;;6.28;;
20073;SDS011;10197;54.282;10.078;2023-11-21T02:31:43;8.55;;;7.63;;
20073;SDS011;10197;54.282;10.078;2023-11-21T02:34:13;8.23;;;7.43;;
20073;SDS011;10197;54.282;10.078;2023-11-21T02:36:41;10.38;;;7.13;;
20073;SDS011;10197;54.282;10.078;2023-11-21T02:39:08;8.52;;;6.72;;
20073;SDS011;10197;54.282;10.078;2023-11-21T02:41:37;7.82;;;6.47;;
20073;SDS011;10197;54.282;10.078;2023-11-21T02:44:04;8.40;;;7.13;;
20073;SDS011;10197;54.282;10.078;2023-11-21T02:46:32;9.25;;;7.85;;
20073;SDS011;10197;54.282;10.078;2023-11-21T02:48:59;8.75;;;6.97;;
20073;SDS011;10197;54.282;10.078;2023-11-21T02:51:26;6.97;;;6.28;;
20073;SDS011;10197;54.282;10.078;2023-11-21T02:53:52;8.25;;;7.25;;
20073;SDS011;10197;54.282;10.078;2023-11-21T02:56:19;9.93;;;7.35;;
20073;SDS011;10197;54.282;10.078;2023-11-21T02:58:48;8.70;;;7.25;;
20073;SDS011;10197;54.282;10.078;2023-11-21T03:01:14;9.68;;;7.75;;
20073;SDS011;10197;54.282;10.078;2023-11-21T03:03:42;8.95;;;7.90;;
20073;SDS011;10197;54.282;10.078;2023-11-21T03:06:08;10.07;;;7.70;;
20073;SDS011;10197;54.282;10.078;2023-11-21T03:08:35;10.77;;;7.70;;
20073;SDS011;10197;54.282;10.078;2023-11-21T03:11:02;10.27;;;7.60;;
20073;SDS011;10197;54.282;10.078;2023-11-21T03:13:29;11.50;;;8.02;;
20073;SDS011;10197;54.282;10.078;2023-11-21T03:15:58;9.68;;;7.45;;
20073;SDS011;10197;54.282;10.078;2023-11-21T03:18:25;11.18;;;7.97;;
20073;SDS011;10197;54.282;10.078;2023-11-21T03:20:54;12.63;;;8.50;;
20073;SDS011;10197;54.282;10.078;2023-11-21T03:23:21;10.70;;;8.20;;
20073;SDS011;10197;54.282;10.078;2023-11-21T03:25:47;9.55;;;7.95;;
20073;SDS011;10197;54.282;10.078;2023-11-21T03:28:14;12.55;;;8.48;;
20073;SDS011;10197;54.282;10.078;2023-11-21T03:30:41;10.38;;;8.95;;
20073;SDS011;10197;54.282;10.078;2023-11-21T03:33:09;10.40;;;7.63;;
20073;SDS011;10197;54.282;10.078;2023-11-21T03:35:35;9.70;;;7.82;;
20073;SDS011;10197;54.282;10.078;2023-11-21T03:38:02;10.55;;;8.52;;
20073;SDS011;10197;54.282;10.078;2023-11-21T03:40:29;9.05;;;7.55;;
20073;SDS011;10197;54.282;10.078;2023-11-21T03:42:56;10.10;;;7.78;;
20073;SDS011;10197;54.282;10.078;2023-11-21T03:45:23;7.65;;;6.85;;
20073;SDS011;10197;54.282;10.078;2023-11-21T03:47:50;11.52;;;7.68;;
20073;SDS011;10197;54.282;10.078;2023-11-21T03:50:18;9.75;;;8.02;;
20073;SDS011;10197;54.282;10.078;2023-11-21T03:52:45;9.32;;;8.00;;
20073;SDS011;10197;54.282;10.078;2023-11-21T03:55:11;9.85;;;7.57;;
20073;SDS011;10197;54.282;10.078;2023-11-21T03:57:41;10.15;;;8.18;;
20073;SDS011;10197;54.282;10.078;2023-11-21T04:00:08;9.50;;;7.50;;
20073;SDS011;10197;54.282;10.078;2023-11-21T04:02:39;8.85;;;7.57;;
20073;SDS011;10197;54.282;10.078;2023-11-21T04:05:05;10.15;;;7.70;;
20073;SDS011;10197;54.282;10.078;2023-11-21T04:07:35;9.48;;;7.38;;
20073;SDS011;10197;54.282;10.078;2023-11-21T04:10:03;8.23;;;7.38;;
20073;SDS011;10197;54.282;10.078;2023-11-21T04:12:32;10.48;;;7.88;;
20073;SDS011;10197;54.282;10.078;2023-11-21T04:14:59;9.68;;;8.18;;
20073;SDS011;10197;54.282;10.078;2023-11-21T04:17:26;9.90;;;8.27;;
20073;SDS011;10197;54.282;10.078;2023-11-21T04:19:52;9.93;;;7.40;;
20073;SDS011;10197;54.282;10.078;2023-11-21T04:22:19;10.57;;;7.05;;
20073;SDS011;10197;54.282;10.078;2023-11-21T04:24:47;10.25;;;8.02;;
20073;SDS011;10197;54.282;10.078;2023-11-21T04:27:14;7.30;;;6.60;;
20073;SDS011;10197;54.282;10.078;2023-11-21T04:29:43;7.00;;;6.30;;
20073;SDS011;10197;54.282;10.078;2023-11-21T04:32:09;7.00;;;5.95;;
20073;SDS011;10197;54.282;10.078;2023-11-21T04:34:37;7.35;;;6.57;;
20073;SDS011;10197;54.282;10.078;2023-11-21T04:37:04;7.03;;;5.97;;
20073;SDS011;10197;54.282;10.078;2023-11-21T04:39:31;9.15;;;6.22;;
20073;SDS011;10197;54.282;10.078;2023-11-21T04:41:59;8.82;;;6.13;;
20073;SDS011;10197;54.282;10.078;2023-11-21T04:44:26;10.32;;;5.60;;
20073;SDS011;10197;54.282;10.078;2023-11-21T04:46:53;6.90;;;5.20;;
20073;SDS011;10197;54.282;10.078;2023-11-21T04:49:20;6.63;;;4.95;;
20073;SDS011;10197;54.282;10.078;2023-11-21T04:51:47;6.43;;;4.93;;
20073;SDS011;10197;54.282;10.078;2023-11-21T04:54:14;6.40;;;4.53;;
20073;SDS011;10197;54.282;10.078;2023-11-21T04:56:41;6.85;;;5.05;;
20073;SDS011;10197;54.282;10.078;2023-11-21T04:59:09;4.75;;;4.20;;
20073;SDS011;10197;54.282;10.078;2023-11-21T05:01:36;4.68;;;4.03;;
20073;SDS011;10197;54.282;10.078;2023-11-21T05:04:04;4.50;;;3.92;;
20073;SDS011;10197;54.282;10.078;2023-11-21T05:06:31;6.20;;;4.00;;
20073;SDS011;10197;54.282;10.078;2023-11-21T05:08:58;5.65;;;3.67;;
20073;SDS011;10197;54.282;10.078;2023-11-21T05:11:25;5.82;;;4.03;;
20073;SDS011;10197;54.282;10.078;2023-11-21T05:13:51;6.78;;;4.18;;
20073;SDS011;10197;54.282;10.078;2023-11-21T05:16:20;4.43;;;3.50;;
20073;SDS011;10197;54.282;10.078;2023-11-21T05:18:47;5.45;;;3.90;;
20073;SDS011;10197;54.282;10.078;2023-11-21T05:21:15;4.75;;;3.80;;
20073;SDS011;10197;54.282;10.078;2023-11-21T05:23:42;5.60;;;3.83;;
20073;SDS011;10197;54.282;10.078;2023-11-21T05:26:08;4.28;;;3.88;;
20073;SDS011;10197;54.282;10.078;2023-11-21T05:28:35;4.80;;;4.07;;
20073;SDS011;10197;54.282;10.078;2023-11-21T05:31:02;7.22;;;3.80;;
20073;SDS011;10197;54.282;10.078;2023-11-21T05:33:30;5.55;;;3.90;;
20073;SDS011;10197;54.282;10.078;2023-11-21T05:35:58;5.38;;;3.83;;
20073;SDS011;10197;54.282;10.078;2023-11-21T05:38:25;6.25;;;3.63;;
20073;SDS011;10197;54.282;10.078;2023-11-21T05:40:52;5.13;;;3.80;;
20073;SDS011;10197;54.282;10.078;2023-11-21T05:43:19;6.60;;;3.60;;
20073;SDS011;10197;54.282;10.078;2023-11-21T05:45:46;7.15;;;3.65;;
20073;SDS011;10197;54.282;10.078;2023-11-21T05:48:13;6.53;;;4.15;;
20073;SDS011;10197;54.282;10.078;2023-11-21T05:50:42;7.78;;;3.33;;
20073;SDS011;10197;54.282;10.078;2023-11-21T05:53:09;5.05;;;3.40;;
20073;SDS011;10197;54.282;10.078;2023-11-21T05:55:36;5.45;;;4.15;;
20073;SDS011;10197;54.282;10.078;2023-11-21T05:58:04;8.40;;;3.80;;
20073;SDS011;10197;54.282;10.078;2023-11-21T06:00:32;6.47;;;3.42;;
20073;SDS011;10197;54.282;10.078;2023-11-21T06:02:59;7.55;;;3.75;;
20073;SDS011;10197;54.282;10.078;2023-11-21T06:05:26;5.00;;;4.15;;
20073;SDS011;10197;54.282;10.078;2023-11-21T06:07:54;6.75;;;4.45;;
20073;SDS011;10197;54.282;10.078;2023-11-21T06:10:23;6.95;;;3.75;;
20073;SDS011;10197;54.282;10.078;2023-11-21T06:12:51;6.28;;;4.65;;
20073;SDS011;10197;54.282;10.078;2023-11-21T06:15:18;7.10;;;4.45;;
20073;SDS011;10197;54.282;10.078;2023-11-21T06:17:47;5.07;;;4.50;;
20073;SDS011;10197;54.282;10.078;2023-11-21T06:20:17;8.52;;;5.00;;
20073;SDS011;10197;54.282;10.078;2023-11-21T06:22:45;7.25;;;5.00;;
20073;SDS011;10197;54.282;10.078;2023-11-21T06:25:14;7.47;;;4.78;;
20073;SDS011;10197;54.282;10.078;2023-11-21T06:27:41;8.15;;;5.28;;
20073;SDS011;10197;54.282;10.078;2023-11-21T06:30:09;7.07;;;5.50;;
20073;SDS011;10197;54.282;10.078;2023-11-21T06:32:37;5.75;;;5.15;;
20073;SDS011;10197;54.282;10.078;2023-11-21T06:35:05;7.35;;;5.13;;
20073;SDS011;10197;54.282;10.078;2023-11-21T06:37:33;6.18;;;5.07;;
20073;SDS011;10197;54.282;10.078;2023-11-21T06:40:00;6.65;;;4.75;;
20073;SDS011;10197;54.282;10.078;2023-11-21T06:42:30;6.50;;;4.63;;
20073;SDS011;10197;54.282;10.078;2023-11-21T06:44:57;7.53;;;5.53;;
20073;SDS011;10197;54.282;10.078;2023-11-21T06:47:24;8.32;;;5.65;;
20073;SDS011;10197;54.282;10.078;2023-11-21T06:49:51;7.13;;;5.47;;
20073;SDS011;10197;54.282;10.078;2023-11-21T06:52:18;6.57;;;5.25;;
20073;SDS011;10197;54.282;10.078;2023-11-21T06:54:45;6.80;;;4.88;;
20073;SDS011;10197;54.282;10.078;2023-11-21T06:57:12;6.10;;;5.50;;
20073;SDS011;10197;54.282;10.078;2023-11-21T06:59:41;9.18;;;5.32;;
20073;SDS011;10197;54.282;10.078;2023-11-21T07:02:08;7.72;;;5.05;;
20073;SDS011;10197;54.282;10.078;2023-11-21T07:04:35;7.45;;;5.28;;
20073;SDS011;10197;54.282;10.078;2023-11-21T07:07:02;6.20;;;4.75;;
20073;SDS011;10197;54.282;10.078;2023-11-21T07:09:28;8.05;;;5.38;;
20073;SDS011;10197;54.282;10.078;2023-11-21T07:11:56;8.38;;;5.13;;
20073;SDS011;10197;54.282;10.078;2023-11-21T07:14:23;6.38;;;4.90;;
20073;SDS011;10197;54.282;10.078;2023-11-21T07:16:51;6.60;;;5.18;;
20073;SDS011;10197;54.282;10.078;2023-11-21T07:19:17;6.05;;;5.07;;
20073;SDS011;10197;54.282;10.078;2023-11-21T07:21:45;8.65;;;6.03;;
20073;SDS011;10197;54.282;10.078;2023-11-21T07:24:12;10.98;;;5.75;;
20073;SDS011;10197;54.282;10.078;2023-11-21T07:26:38;5.90;;;5.30;;
20073;SDS011;10197;54.282;10.078;2023-11-21T07:29:05;6.80;;;5.88;;
20073;SDS011;10197;54.282;10.078;2023-11-21T07:31:32;7.63;;;5.47;;
20073;SDS011;10197;54.282;10.078;2023-11-21T07:34:01;9.15;;;5.53;;
20073;SDS011;10197;54.282;10.078;2023-11-21T07:36:28;7.20;;;5.30;;
20073;SDS011;10197;54.282;10.078;2023-11-21T07:38:55;8.23;;;5.70;;
20073;SDS011;10197;54.282;10.078;2023-11-21T07:41:21;9.57;;;6.07;;
20073;SDS011;10197;54.282;10.078;2023-11-21T07:43:48;8.57;;;5.70;;
20073;SDS011;10197;54.282;10.078;2023-11-21T07:46:15;8.45;;;5.88;;
20073;SDS011;10197;54.282;10.078;2023-11-21T07:48:43;9.60;;;5.60;;
20073;SDS011;10197;54.282;10.078;2023-11-21T07:51:12;7.80;;;6.05;;
20073;SDS011;10197;54.282;10.078;2023-11-21T07:53:39;6.28;;;5.30;;
20073;SDS011;10197;54.282;10.078;2023-11-21T07:56:06;6.93;;;5.85;;
20073;SDS011;10197;54.282;10.078;2023-11-21T07:58:34;7.55;;;5.80;;
20073;SDS011;10197;54.282;10.078;2023-11-21T08:01:01;10.40;;;6.47;;
20073;SDS011;10197;54.282;10.078;2023-11-21T08:03:28;8.73;;;5.93;;
20073;SDS011;10197;54.282;10.078;2023-11-21T08:05:55;7.43;;;6.18;;
20073;SDS011;10197;54.282;10.078;2023-11-21T08:08:24;8.70;;;6.60;;
20073;SDS011;10197;54.282;10.078;2023-11-21T08:10:52;8.85;;;5.90;;
20073;SDS011;10197;54.282;10.078;2023-11-21T08:13:21;7.85;;;5.85;;
20073;SDS011;10197;54.282;10.078;2023-11-21T08:15:48;7.80;;;5.65;;
20073;SDS011;10197;54.282;10.078;2023-11-21T08:18:15;8.45;;;5.53;;
20073;SDS011;10197;54.282;10.078;2023-11-21T08:20:43;7.90;;;5.40;;
20073;SDS011;10197;54.282;10.078;2023-11-21T08:23:13;8.20;;;5.53;;
20073;SDS011;10197;54.282;10.078;2023-11-21T08:25:43;8.65;;;5.63;;
20073;SDS011;10197;54.282;10.078;2023-11-21T08:28:10;8.27;;;5.80;;
20073;SDS011;10197;54.282;10.078;2023-11-21T08:30:36;8.23;;;5.53;;
20073;SDS011;10197;54.282;10.078;2023-11-21T08:33:03;7.45;;;5.40;;
20073;SDS011;10197;54.282;10.078;2023-11-21T08:35:30;8.85;;;5.13;;
20073;SDS011;10197;54.282;10.078;2023-11-21T08:37:57;8.80;;;6.00;;
20073;SDS011;10197;54.282;10.078;2023-11-21T08:40:24;9.25;;;5.70;;
20073;SDS011;10197;54.282;10.078;2023-11-21T08:42:52;6.90;;;5.70;;
20073;SDS011;10197;54.282;10.078;2023-11-21T08:45:20;8.63;;;6.07;;
20073;SDS011;10197;54.282;10.078;2023-11-21T08:47:47;7.95;;;6.03;;
20073;SDS011;10197;54.282;10.078;2023-11-21T08:50:14;6.28;;;5.20;;
20073;SDS011;10197;54.282;10.078;2023-11-21T08:52:41;7.53;;;5.30;;
20073;SDS011;10197;54.282;10.078;2023-11-21T08:55:08;7.40;;;5.88;;
20073;SDS011;10197;54.282;10.078;2023-11-21T08:57:37;10.30;;;5.88;;
20073;SDS011;10197;54.282;10.078;2023-11-21T09:00:07;8.07;;;5.75;;
20073;SDS011;10197;54.282;10.078;2023-11-21T09:02:36;6.43;;;5.45;;
20073;SDS011;10197;54.282;10.078;2023-11-21T09:05:04;6.28;;;5.38;;
20073;SDS011;10197;54.282;10.078;2023-11-21T09:07:31;10.95;;;6.07;;
20073;SDS011;10197;54.282;10.078;2023-11-21T09:09:58;6.68;;;5.30;;
20073;SDS011;10197;54.282;10.078;2023-11-21T09:12:25;6.43;;;4.85;;
20073;SDS011;10197;54.282;10.078;2023-11-21T09:14:51;6.63;;;5.10;;
20073;SDS011;10197;54.282;10.078;2023-11-21T09:17:20;5.90;;;4.65;;
20073;SDS011;10197;54.282;10.078;2023-11-21T09:19:47;7.68;;;5.28;;
20073;SDS011;10197;54.282;10.078;2023-11-21T09:22:16;9.73;;;5.55;;
20073;SDS011;10197;54.282;10.078;2023-11-21T09:24:44;7.95;;;4.93;;
20073;SDS011;10197;54.282;10.078;2023-11-21T09:27:11;8.15;;;5.47;;
20073;SDS011;10197;54.282;10.078;2023-11-21T09:29:37;8.13;;;4.65;;
20073;SDS011;10197;54.282;10.078;2023-11-21T09:32:05;7.10;;;4.88;;
20073;SDS011;10197;54.282;10.078;2023-11-21T09:34:34;6.88;;;4.70;;
20073;SDS011;10197;54.282;10.078;2023-11-21T09:37:03;6.22;;;4.60;;
20073;SDS011;10197;54.282;10.078;2023-11-21T09:39:31;5.53;;;4.60;;
20073;SDS011;10197;54.282;10.078;2023-11-21T09:42:00;6.50;;;4.75;;
20073;SDS011;10197;54.282;10.078;2023-11-21T09:44:32;5.90;;;3.55;;
20073;SDS011;10197;54.282;10.078;2023-11-21T09:47:02;5.75;;;3.95;;
20073;SDS011;10197;54.282;10.078;2023-11-21T09:49:29;4.47;;;4.03;;
20073;SDS011;10197;54.282;10.078;2023-11-21T09:52:01;3.92;;;3.47;;
20073;SDS011;10197;54.282;10.078;2023-11-21T09:54:29;6.82;;;3.90;;
20073;SDS011;10197;54.282;10.078;2023-11-21T09:56:57;6.85;;;3.53;;
20073;SDS011;10197;54.282;10.078;2023-11-21T09:59:25;4.30;;;3.80;;
20073;SDS011;10197;54.282;10.078;2023-11-21T10:01:56;7.22;;;4.13;;
20073;SDS011;10197;54.282;10.078;2023-11-21T10:04:25;3.70;;;3.17;;
20073;SDS011;10197;54.282;10.078;2023-11-21T10:06:53;6.72;;;4.25;;
20073;SDS011;10197;54.282;10.078;2023-11-21T10:09:21;5.80;;;4.32;;
20073;SDS011;10197;54.282;10.078;2023-11-21T10:11:49;5.15;;;3.83;;
20073;SDS011;10197;54.282;10.078;2023-11-21T10:14:18;4.95;;;4.05;;
20073;SDS011;10197;54.282;10.078;2023-11-21T10:16:47;5.00;;;4.30;;
20073;SDS011;10197;54.282;10.078;2023-11-21T10:19:14;6.93;;;4.30;;
20073;SDS011;10197;54.282;10.078;2023-11-21T10:21:42;6.20;;;5.30;;
20073;SDS011;10197;54.282;10.078;2023-11-21T10:24:09;7.97;;;5.30;;
20073;SDS011;10197;54.282;10.078;2023-11-21T10:26:39;6.43;;;4.75;;
20073;SDS011;10197;54.282;10.078;2023-11-21T10:29:07;5.15;;;4.00;;
20073;SDS011;10197;54.282;10.078;2023-11-21T10:31:32;4.95;;;4.05;;
20073;SDS011;10197;54.282;10.078;2023-11-21T10:34:13;4.88;;;4.22;;
20073;SDS011;10197;54.282;10.078;2023-11-21T10:36:41;7.35;;;3.65;;
20073;SDS011;10197;54.282;10.078;2023-11-21T10:39:07;5.55;;;3.95;;
20073;SDS011;10197;54.282;10.078;2023-11-21T10:41:35;6.65;;;3.72;;
20073;SDS011;10197;54.282;10.078;2023-11-21T10:44:03;6.57;;;3.75;;
20073;SDS011;10197;54.282;10.078;2023-11-21T10:46:32;4.78;;;3.80;;
20073;SDS011;10197;54.282;10.078;2023-11-21T10:49:00;6.28;;;3.83;;
20073;SDS011;10197;54.282;10.078;2023-11-21T10:51:27;4.65;;;4.05;;
20073;SDS011;10197;54.282;10.078;2023-11-21T10:53:53;4.75;;;3.70;;
20073;SDS011;10197;54.282;10.078;2023-11-21T10:56:23;6.53;;;4.15;;
20073;SDS011;10197;54.282;10.078;2023-11-21T10:58:50;4.10;;;3.65;;
20073;SDS011;10197;54.282;10.078;2023-11-21T11:01:18;5.40;;;4.03;;
20073;SDS011;10197;54.282;10.078;2023-11-21T11:03:46;5.43;;;4.13;;
20073;SDS011;10197;54.282;10.078;2023-11-21T11:06:14;6.10;;;4.10;;
20073;SDS011;10197;54.282;10.078;2023-11-21T11:08:41;5.68;;;4.15;;
20073;SDS011;10197;54.282;10.078;2023-11-21T11:11:10;5.93;;;4.03;;
20073;SDS011;10197;54.282;10.078;2023-11-21T11:13:37;4.47;;;3.50;;
20073;SDS011;10197;54.282;10.078;2023-11-21T11:16:04;4.30;;;3.40;;
20073;SDS011;10197;54.282;10.078;2023-11-21T11:18:34;4.05;;;3.70;;
20073;SDS011;10197;54.282;10.078;2023-11-21T11:21:01;4.40;;;3.63;;
20073;SDS011;10197;54.282;10.078;2023-11-21T11:23:38;4.22;;;3.42;;
20073;SDS011;10197;54.282;10.078;2023-11-21T11:26:12;4.40;;;3.50;;
20073;SDS011;10197;54.282;10.078;2023-11-21T11:28:51;4.00;;;3.53;;
20073;SDS011;10197;54.282;10.078;2023-11-21T11:31:25;4.43;;;3.15;;
20073;SDS011;10197;54.282;10.078;2023-11-21T11:33:58;4.63;;;3.40;;
20073;SDS011;10197;54.282;10.078;2023-11-21T11:36:29;5.40;;;3.50;;
20073;SDS011;10197;54.282;10.078;2023-11-21T11:38:58;4.72;;;3.70;;
20073;SDS011;10197;54.282;10.078;2023-11-21T11:41:27;4.68;;;3.78;;
20073;SDS011;10197;54.282;10.078;2023-11-21T11:43:55;4.20;;;3.60;;
20073;SDS011;10197;54.282;10.078;2023-11-21T11:49:09;5.35;;;3.90;;
20073;SDS011;10197;54.282;10.078;2023-11-21T11:51:36;4.43;;;3.78;;
20073;SDS011;10197;54.282;10.078;2023-11-21T11:54:03;6.40;;;4.10;;
20073;SDS011;10197;54.282;10.078;2023-11-21T11:56:33;7.00;;;4.07;;
20073;SDS011;10197;54.282;10.078;2023-11-21T11:59:02;6.00;;;4.00;;
20073;SDS011;10197;54.282;10.078;2023-11-21T12:01:31;5.57;;;4.60;;
20073;SDS011;10197;54.282;10.078;2023-11-21T12:06:59;5.82;;;4.05;;
20073;SDS011;10197;54.282;10.078;2023-11-21T12:09:28;8.55;;;4.05;;
20073;SDS011;10197;54.282;10.078;2023-11-21T12:11:56;8.45;;;4.43;;
20073;SDS011;10197;54.282;10.078;2023-11-21T12:14:23;6.88;;;4.43;;
20073;SDS011;10197;54.282;10.078;2023-11-21T12:16:50;4.15;;;3.55;;
20073;SDS011;10197;54.282;10.078;2023-11-21T12:19:18;5.18;;;3.80;;
20073;SDS011;10197;54.282;10.078;2023-11-21T12:21:47;5.88;;;4.20;;
20073;SDS011;10197;54.282;10.078;2023-11-21T12:24:15;5.85;;;4.32;;
20073;SDS011;10197;54.282;10.078;2023-11-21T12:26:43;4.50;;;4.10;;
20073;SDS011;10197;54.282;10.078;2023-11-21T12:29:10;9.27;;;4.82;;
20073;SDS011;10197;54.282;10.078;2023-11-21T12:31:37;5.93;;;4.20;;
20073;SDS011;10197;54.282;10.078;2023-11-21T12:34:04;4.43;;;3.75;;
20073;SDS011;10197;54.282;10.078;2023-11-21T12:36:32;5.95;;;4.07;;
20073;SDS011;10197;54.282;10.078;2023-11-21T12:39:01;6.03;;;3.85;;
20073;SDS011;10197;54.282;10.078;2023-11-21T12:41:28;6.78;;;3.92;;
20073;SDS011;10197;54.282;10.078;2023-11-21T12:43:56;4.30;;;3.40;;
20073;SDS011;10197;54.282;10.078;2023-11-21T12:46:23;4.85;;;3.72;;
20073;SDS011;10197;54.282;10.078;2023-11-21T12:48:54;4.28;;;3.88;;
20073;SDS011;10197;54.282;10.078;2023-11-21T12:51:21;5.18;;;3.80;;
20073;SDS011;10197;54.282;10.078;2023-11-21T12:53:48;5.55;;;3.65;;
20073;SDS011;10197;54.282;10.078;2023-11-21T12:56:18;6.80;;;3.75;;
20073;SDS011;10197;54.282;10.078;2023-11-21T12:58:45;5.85;;;3.55;;
20073;SDS011;10197;54.282;10.078;2023-11-21T13:01:13;5.28;;;3.80;;
20073;SDS011;10197;54.282;10.078;2023-11-21T13:03:45;4.90;;;3.47;;
20073;SDS011;10197;54.282;10.078;2023-11-21T13:06:14;6.95;;;3.40;;
20073;SDS011;10197;54.282;10.078;2023-11-21T13:08:43;6.22;;;3.95;;
20073;SDS011;10197;54.282;10.078;2023-11-21T13:11:10;5.07;;;3.63;;
20073;SDS011;10197;54.282;10.078;2023-11-21T13:13:40;5.03;;;3.60;;
20073;SDS011;10197;54.282;10.078;2023-11-21T13:16:07;5.88;;;3.67;;
20073;SDS011;10197;54.282;10.078;2023-11-21T13:18:35;3.60;;;3.25;;
20073;SDS011;10197;54.282;10.078;2023-11-21T13:21:03;6.72;;;3.20;;
20073;SDS011;10197;54.282;10.078;2023-11-21T13:23:35;3.78;;;3.15;;
20073;SDS011;10197;54.282;10.078;2023-11-21T13:26:03;4.68;;;3.40;;
20073;SDS011;10197;54.282;10.078;2023-11-21T13:28:30;4.35;;;3.70;;
20073;SDS011;10197;54.282;10.078;2023-11-21T13:30:59;4.20;;;3.28;;
20073;SDS011;10197;54.282;10.078;2023-11-21T13:33:29;5.80;;;3.60;;
20073;SDS011;10197;54.282;10.078;2023-11-21T13:35:56;4.25;;;3.20;;
20073;SDS011;10197;54.282;10.078;2023-11-21T13:38:22;6.72;;;4.32;;
20073;SDS011;10197;54.282;10.078;2023-11-21T13:40:50;5.88;;;3.88;;
20073;SDS011;10197;54.282;10.078;2023-11-21T13:43:19;4.90;;;3.67;;
20073;SDS011;10197;54.282;10.078;2023-11-21T13:45:47;5.95;;;3.70;;
20073;SDS011;10197;54.282;10.078;2023-11-21T13:48:18;4.35;;;3.53;;
20073;SDS011;10197;54.282;10.078;2023-11-21T13:50:53;6.53;;;3.55;;
20073;SDS011;10197;54.282;10.078;2023-11-21T13:53:24;6.25;;;3.30;;
20073;SDS011;10197;54.282;10.078;2023-11-21T13:55:51;5.55;;;3.63;;
20073;SDS011;10197;54.282;10.078;2023-11-21T13:58:19;7.25;;;3.60;;
20073;SDS011;10197;54.282;10.078;2023-11-21T14:00:51;5.63;;;3.58;;
20073;SDS011;10197;54.282;10.078;2023-11-21T14:03:23;5.20;;;3.72;;
20073;SDS011;10197;54.282;10.078;2023-11-21T14:05:57;5.28;;;3.83;;
20073;SDS011;10197;54.282;10.078;2023-11-21T14:08:26;5.40;;;3.58;;
20073;SDS011;10197;54.282;10.078;2023-11-21T14:10:53;7.38;;;4.38;;
20073;SDS011;10197;54.282;10.078;2023-11-21T14:13:22;7.72;;;5.40;;
20073;SDS011;10197;54.282;10.078;2023-11-21T14:15:49;7.25;;;4.75;;
20073;SDS011;10197;54.282;10.078;2023-11-21T14:18:24;8.70;;;4.85;;
20073;SDS011;10197;54.282;10.078;2023-11-21T14:20:55;5.40;;;4.10;;
20073;SDS011;10197;54.282;10.078;2023-11-21T14:23:22;7.20;;;3.85;;
20073;SDS011;10197;54.282;10.078;2023-11-21T14:25:49;8.18;;;3.88;;
20073;SDS011;10197;54.282;10.078;2023-11-21T14:28:17;10.15;;;6.72;;
20073;SDS011;10197;54.282;10.078;2023-11-21T14:30:44;7.50;;;5.80;;
20073;SDS011;10197;54.282;10.078;2023-11-21T14:33:11;6.82;;;4.75;;
20073;SDS011;10197;54.282;10.078;2023-11-21T14:35:39;6.55;;;4.03;;
20073;SDS011;10197;54.282;10.078;2023-11-21T14:38:06;8.13;;;4.72;;
20073;SDS011;10197;54.282;10.078;2023-11-21T14:40:35;5.97;;;4.30;;
20073;SDS011;10197;54.282;10.078;2023-11-21T14:43:02;8.20;;;4.38;;
20073;SDS011;10197;54.282;10.078;2023-11-21T14:45:30;4.50;;;3.78;;